createdAt,value
2022-10-06T00:00:15.223Z,60.67
2022-10-06T00:16:29.598Z,60.54
2022-10-06T00:19:02.596Z,60.66
2022-10-06T00:21:29.165Z,60.81
2022-10-06T00:24:09.527Z,60.72
2022-10-06T00:26:42.571Z,60.66
2022-10-06T00:29:09.135Z,60.72
2022-10-06T00:31:51.518Z,60.62
2022-10-06T00:45:03.525Z,61.17
2022-10-06T00:47:38.703Z,61.51
2022-10-06T00:50:13.498Z,61.61
2022-10-06T00:52:47.590Z,61.70
2022-10-06T00:55:23.097Z,61.73
2022-10-06T01:09:18.511Z,62.37
2022-10-06T01:11:59.518Z,62.26
2022-10-06T01:14:41.516Z,62.35
2022-10-06T01:17:21.723Z,62.26
2022-10-06T01:20:06.513Z,62.18
2022-10-06T01:22:54.222Z,62.25
2022-10-06T01:25:35.735Z,62.07
2022-10-06T01:36:05.475Z,61.99
2022-10-06T01:38:47.498Z,62.19
2022-10-06T01:41:21.789Z,62.09
2022-10-06T01:43:55.482Z,62.07
2022-10-06T01:46:29.656Z,62.38
2022-10-06T01:49:03.514Z,62.15
2022-10-06T01:51:36.561Z,62.17
2022-10-06T02:04:25.490Z,62.10
2022-10-06T02:07:05.516Z,62.18
2022-10-06T02:09:42.985Z,62.07
2022-10-06T02:12:23.487Z,62.00
2022-10-06T02:14:56.657Z,62.09
2022-10-06T02:31:14.587Z,62.02
2022-10-06T02:33:47.609Z,61.85
2022-10-06T02:36:23.497Z,61.70
2022-10-06T02:38:56.585Z,61.89
2022-10-06T02:41:30.494Z,62.05
2022-10-06T02:44:04.198Z,61.99
2022-10-06T02:46:39.569Z,62.19
2022-10-06T02:56:26.462Z,62.00
2022-10-06T02:59:06.526Z,61.86
2022-10-06T03:01:43.612Z,61.97
2022-10-06T03:04:26.847Z,62.16
2022-10-06T03:06:59.571Z,62.18
2022-10-06T03:09:37.478Z,62.11
2022-10-06T03:12:10.593Z,62.12
2022-10-06T03:25:02.475Z,62.23
2022-10-06T03:27:42.505Z,62.52
2022-10-06T03:30:15.993Z,62.43
2022-10-06T03:32:49.519Z,62.29
2022-10-06T03:35:22.877Z,62.70
2022-10-06T03:51:41.491Z,62.89
2022-10-06T03:54:25.031Z,63.00
2022-10-06T03:57:20.471Z,63.03
2022-10-06T03:59:54.801Z,63.28
2022-10-06T04:02:27.581Z,63.17
2022-10-06T04:05:00.587Z,63.01
2022-10-06T04:17:50.472Z,63.35
2022-10-06T04:20:30.497Z,63.36
2022-10-06T04:23:04.547Z,63.40
2022-10-06T04:25:38.482Z,63.46
2022-10-06T04:28:12.901Z,63.17
2022-10-06T04:30:46.514Z,63.25
2022-10-06T04:43:59.521Z,63.43
2022-10-06T04:46:43.808Z,63.39
2022-10-06T04:49:26.498Z,63.68
2022-10-06T04:51:59.927Z,63.73
2022-10-06T04:54:36.494Z,63.80
2022-10-06T04:57:09.678Z,63.62
2022-10-06T05:10:12.468Z,63.81
2022-10-06T05:12:54.282Z,64.05
2022-10-06T05:15:27.848Z,64.05
2022-10-06T05:18:01.505Z,64.25
2022-10-06T05:20:34.828Z,63.96
2022-10-06T05:23:12.486Z,64.27
2022-10-06T05:25:52.449Z,64.26
2022-10-06T05:38:48.460Z,64.76
2022-10-06T05:41:32.472Z,64.85
2022-10-06T05:44:08.636Z,65.06
2022-10-06T05:46:44.491Z,65.00
2022-10-06T05:49:18.814Z,65.17
2022-10-06T05:51:57.510Z,64.92
2022-10-06T06:05:12.485Z,65.24
2022-10-06T06:07:45.855Z,65.33
2022-10-06T06:10:19.498Z,65.33
2022-10-06T06:12:53.469Z,65.43
2022-10-06T06:15:45.079Z,65.56
2022-10-06T06:32:21.447Z,65.66
2022-10-06T06:35:02.757Z,65.76
2022-10-06T06:37:35.651Z,65.75
2022-10-06T06:40:09.485Z,65.72
2022-10-06T06:42:42.586Z,65.70
2022-10-06T06:45:42.525Z,65.93
2022-10-06T06:59:02.543Z,66.17
2022-10-06T07:01:37.099Z,66.08
2022-10-06T07:04:11.471Z,66.13
2022-10-06T07:06:46.406Z,66.13
2022-10-06T07:09:19.479Z,66.51
2022-10-06T07:11:58.123Z,66.41
2022-10-06T07:24:54.433Z,66.30
2022-10-06T07:27:35.510Z,66.15
2022-10-06T07:30:14.595Z,65.83
2022-10-06T07:32:59.477Z,65.44
2022-10-06T07:35:33.679Z,64.46
2022-10-06T07:51:49.496Z,61.91
2022-10-06T07:54:27.153Z,61.95
2022-10-06T07:57:28.515Z,61.60
2022-10-06T08:00:03.583Z,61.54
2022-10-06T08:02:44.530Z,61.26
2022-10-06T08:05:17.583Z,61.45
2022-10-06T08:18:21.410Z,61.60
2022-10-06T08:21:07.491Z,61.56
2022-10-06T08:23:42.015Z,61.46
2022-10-06T08:26:17.558Z,61.47
2022-10-06T08:28:53.673Z,61.74
2022-10-06T08:31:29.545Z,61.61
2022-10-06T08:44:49.481Z,61.50
2022-10-06T08:47:27.758Z,61.52
2022-10-06T08:50:10.470Z,61.57
2022-10-06T08:53:02.673Z,61.66
2022-10-06T08:55:51.486Z,61.58
2022-10-06T09:12:40.446Z,61.61
2022-10-06T09:15:37.618Z,61.30
2022-10-06T09:18:20.882Z,61.13
2022-10-06T09:21:07.496Z,61.14
2022-10-06T09:23:49.523Z,60.94
2022-10-06T09:26:36.738Z,60.62
2022-10-06T09:39:51.511Z,60.55
2022-10-06T09:42:29.274Z,60.56
2022-10-06T09:45:12.473Z,60.48
2022-10-06T09:47:45.839Z,60.55
2022-10-06T09:50:27.483Z,60.54
2022-10-06T10:04:27.492Z,60.32
2022-10-06T10:07:15.063Z,60.17
2022-10-06T10:09:55.698Z,60.13
2022-10-06T10:12:33.759Z,60.14
2022-10-06T10:15:34.502Z,59.64
2022-10-06T10:18:13.559Z,59.47
2022-10-06T10:21:02.455Z,59.20
2022-10-06T10:31:15.532Z,58.85
2022-10-06T10:34:23.915Z,58.82
2022-10-06T10:37:08.517Z,59.13
2022-10-06T10:39:58.481Z,58.50
2022-10-06T10:42:43.841Z,58.10
2022-10-06T10:45:30.455Z,57.78
2022-10-06T10:58:46.469Z,56.22
2022-10-06T11:01:31.908Z,55.39
2022-10-06T11:04:17.479Z,55.24
2022-10-06T11:07:08.984Z,55.57
2022-10-06T11:10:02.482Z,55.43
2022-10-06T11:27:08.496Z,53.35
2022-10-06T11:30:07.735Z,53.13
2022-10-06T11:32:58.846Z,53.12
2022-10-06T11:35:43.492Z,53.37
2022-10-06T11:38:27.462Z,53.82
2022-10-06T11:41:16.550Z,53.56
2022-10-06T11:51:42.447Z,53.15
2022-10-06T11:54:58.794Z,52.83
2022-10-06T11:57:33.609Z,52.25
2022-10-06T12:00:51.494Z,52.57
2022-10-06T12:04:07.943Z,52.76
2022-10-06T12:07:13.465Z,52.05
2022-10-06T12:20:35.485Z,52.07
2022-10-06T12:23:30.192Z,51.28
2022-10-06T12:26:29.477Z,51.67
2022-10-06T12:29:27.771Z,51.14
2022-10-06T12:32:27.066Z,51.00
2022-10-06T12:45:46.106Z,49.48
2022-10-06T12:48:28.327Z,49.59
2022-10-06T12:51:30.527Z,49.56
2022-10-06T12:54:14.591Z,49.23
2022-10-06T12:57:05.458Z,48.63
2022-10-06T12:59:38.510Z,48.25
2022-10-06T13:02:19.537Z,47.13
2022-10-06T13:12:03.447Z,47.32
2022-10-06T13:14:43.462Z,46.97
2022-10-06T13:17:19.596Z,47.27
2022-10-06T13:19:52.508Z,46.90
2022-10-06T13:22:26.582Z,46.62
2022-10-06T13:25:06.490Z,45.83
2022-10-06T13:38:28.750Z,45.09
2022-10-06T13:41:05.214Z,44.92
2022-10-06T13:43:51.481Z,45.56
2022-10-06T13:46:29.128Z,46.66
2022-10-06T13:49:23.473Z,47.45
2022-10-06T13:52:01.430Z,47.71
2022-10-06T14:05:31.456Z,48.33
2022-10-06T14:08:28.470Z,46.92
2022-10-06T14:11:05.766Z,47.09
2022-10-06T14:13:54.453Z,47.00
2022-10-06T14:16:28.909Z,46.18
2022-10-06T14:19:04.465Z,46.08
2022-10-06T14:21:41.572Z,45.43
2022-10-06T14:31:55.489Z,42.90
2022-10-06T14:34:28.710Z,42.43
2022-10-06T14:37:03.470Z,41.67
2022-10-06T14:39:36.805Z,40.69
2022-10-06T14:42:17.723Z,39.45
2022-10-06T14:44:50.501Z,38.97
2022-10-06T14:47:17.038Z,38.53
2022-10-06T15:00:16.443Z,36.44
2022-10-06T15:02:56.561Z,36.70
2022-10-06T15:05:30.366Z,36.75
2022-10-06T15:08:03.513Z,36.59
2022-10-06T15:10:37.796Z,36.75
2022-10-06T15:26:56.884Z,39.81
2022-10-06T15:29:29.980Z,40.18
2022-10-06T15:32:03.484Z,40.62
2022-10-06T15:34:36.509Z,41.22
2022-10-06T15:37:11.495Z,41.29
2022-10-06T15:39:44.829Z,42.29
2022-10-06T15:42:20.982Z,42.64
2022-10-06T15:52:09.437Z,43.66
2022-10-06T15:54:49.498Z,44.64
2022-10-06T15:57:24.935Z,44.79
2022-10-06T15:59:58.479Z,45.52
2022-10-06T16:02:38.791Z,45.72
2022-10-06T16:05:20.486Z,46.12
2022-10-06T16:18:56.481Z,47.09
2022-10-06T16:21:31.150Z,47.32
2022-10-06T16:24:05.474Z,47.54
2022-10-06T16:26:38.909Z,47.63
2022-10-06T16:29:12.493Z,47.67
2022-10-06T16:31:46.454Z,47.63
2022-10-06T16:48:02.105Z,48.00
2022-10-06T16:50:35.593Z,48.22
2022-10-06T16:56:48.499Z,47.66
2022-10-06T16:59:23.474Z,47.70
2022-10-06T17:12:24.451Z,48.14
2022-10-06T17:15:04.499Z,48.39
2022-10-06T17:17:37.766Z,48.25
2022-10-06T17:20:12.492Z,48.24
2022-10-06T17:22:45.673Z,48.27
2022-10-06T17:25:19.496Z,48.66
2022-10-06T17:39:10.503Z,48.59
2022-10-06T17:41:45.387Z,48.95
2022-10-06T17:44:21.496Z,48.65
2022-10-06T17:46:57.546Z,48.68
2022-10-06T17:49:33.058Z,48.71
2022-10-06T17:52:06.509Z,48.83
2022-10-06T17:54:41.492Z,48.99
2022-10-06T18:07:51.469Z,49.04
2022-10-06T18:10:26.428Z,48.53
2022-10-06T18:12:59.494Z,49.11
2022-10-06T18:15:34.826Z,49.19
2022-10-06T18:18:07.493Z,49.47
2022-10-06T18:20:40.606Z,49.20
2022-10-06T18:36:31.502Z,49.47
2022-10-06T18:39:05.243Z,49.30
2022-10-06T18:41:38.459Z,49.15
2022-10-06T18:44:11.961Z,49.69
2022-10-06T19:00:26.467Z,49.43
2022-10-06T19:02:59.579Z,49.44
2022-10-06T19:05:37.480Z,49.81
2022-10-06T19:08:10.707Z,49.62
2022-10-06T19:10:37.261Z,49.52
2022-10-06T19:13:17.477Z,49.37
2022-10-06T19:15:52.487Z,49.61
2022-10-06T19:26:00.479Z,49.42
2022-10-06T19:28:34.695Z,49.14
2022-10-06T19:31:13.544Z,49.26
2022-10-06T19:33:47.826Z,49.03
2022-10-06T19:36:21.518Z,49.11
2022-10-06T19:38:55.339Z,49.66
2022-10-06T19:55:11.206Z,49.68
2022-10-06T19:57:44.777Z,49.55
2022-10-06T20:00:19.470Z,49.58
2022-10-06T20:02:52.844Z,49.57
2022-10-06T20:05:26.461Z,49.63
2022-10-06T20:22:03.443Z,49.40
2022-10-06T20:24:43.486Z,49.71
2022-10-06T20:27:16.501Z,49.63
2022-10-06T20:29:43.179Z,49.80
2022-10-06T20:32:23.447Z,49.62
2022-10-06T20:34:56.569Z,49.84
2022-10-06T20:47:46.078Z,49.69
2022-10-06T20:50:26.457Z,49.79
2022-10-06T20:52:59.496Z,49.80
2022-10-06T20:55:26.048Z,50.06
2022-10-06T20:58:07.718Z,49.76
2022-10-06T21:00:40.540Z,49.78
2022-10-06T21:13:30.440Z,49.86
2022-10-06T21:16:10.504Z,49.88
2022-10-06T21:18:43.614Z,49.73
2022-10-06T21:21:17.485Z,49.56
2022-10-06T21:23:50.665Z,49.81
2022-10-06T21:39:53.485Z,49.83
2022-10-06T21:42:26.529Z,49.91
2022-10-06T21:44:53.061Z,50.20
2022-10-06T21:47:33.571Z,50.37
2022-10-06T21:50:08.061Z,50.10
2022-10-06T21:52:41.469Z,49.95
2022-10-06T21:55:16.503Z,49.88
2022-10-06T22:08:03.430Z,50.04
2022-10-06T22:10:45.468Z,49.90
2022-10-06T22:13:18.507Z,50.17
2022-10-06T22:15:45.093Z,50.24
2022-10-06T22:18:25.486Z,50.27
2022-10-06T22:20:59.385Z,50.13
2022-10-06T22:33:50.431Z,50.36
2022-10-06T22:36:31.443Z,50.43
2022-10-06T22:39:05.133Z,50.36
2022-10-06T22:41:38.469Z,50.44
2022-10-06T22:44:18.393Z,50.54
2022-10-06T22:46:58.498Z,50.67
2022-10-06T22:49:33.664Z,50.52
2022-10-06T23:02:20.417Z,50.37
2022-10-06T23:05:01.457Z,50.42
2022-10-06T23:07:34.506Z,50.56
2022-10-06T23:10:01.062Z,50.43
2022-10-06T23:12:41.472Z,50.82
2022-10-06T23:15:14.748Z,50.44
2022-10-06T23:28:03.477Z,50.59
2022-10-06T23:30:43.477Z,50.78
2022-10-06T23:33:16.533Z,50.68
2022-10-06T23:35:43.061Z,51.01
2022-10-06T23:38:23.446Z,50.62
2022-10-06T23:40:57.192Z,50.95
2022-10-06T23:53:48.416Z,50.98
2022-10-06T23:56:28.490Z,50.91
2022-10-06T23:59:01.530Z,50.86
